Time;durP1;ratioP1;P1;durP2;ratioP2;P2;SDS_P1;SDS_P2;PMS_P1;PMS_P2;Temp;Humidity;BMP_temperature;BMP_pressure;BME280_temperature;BME280_humidity;BME280_pressure;Samples;Min_cycle;Max_cycle;Signal;HPM_P1;HPM_P2
2023/09/03 00:02:04;;;;;;;5.20;3.20;;;;;;;17.64;78.32;99410.95;105804;1257;61058;-22
2023/09/03 00:04:31;;;;;;;5.60;3.00;;;;;;;17.46;78.23;99410.50;105826;1261;61163;-22
2023/09/03 00:06:58;;;;;;;4.10;3.40;;;;;;;17.20;78.59;99414.06;105735;1261;72873;-22
2023/09/03 00:09:25;;;;;;;5.00;3.10;;;;;;;16.93;79.45;99408.72;105761;1256;74285;-22
2023/09/03 00:11:52;;;;;;;3.80;2.60;;;;;;;16.69;80.11;99408.89;105791;1254;72528;-22
2023/09/03 00:14:19;;;;;;;3.10;2.10;;;;;;;17.04;80.51;99409.05;105672;1256;61052;-22
2023/09/03 00:16:46;;;;;;;5.10;2.60;;;;;;;17.42;78.76;99401.10;105515;1257;61128;-22
2023/09/03 00:19:13;;;;;;;4.70;3.00;;;;;;;17.30;78.51;99405.67;105680;1254;73002;-22
2023/09/03 00:21:40;;;;;;;4.50;2.90;;;;;;;16.98;79.39;99403.85;105897;1254;73312;-23
2023/09/03 00:24:07;;;;;;;10.50;3.50;;;;;;;16.66;80.96;99405.15;105805;1257;71471;-22
2023/09/03 00:26:34;;;;;;;6.80;3.30;;;;;;;16.41;81.59;99404.11;105823;1255;61068;-22
2023/09/03 00:29:01;;;;;;;2.60;2.30;;;;;;;16.26;82.23;99406.94;105543;1264;61190;-23
2023/09/03 00:31:29;;;;;;;6.10;2.80;;;;;;;16.62;82.51;99409.13;105661;1254;72856;-22
2023/09/03 00:33:56;;;;;;;4.70;2.60;;;;;;;17.00;80.76;99413.86;105762;1255;74304;-22
2023/09/03 00:36:23;;;;;;;6.40;3.40;;;;;;;16.96;80.29;99417.05;105682;1254;72585;-22
2023/09/03 00:38:52;;;;;;;3.70;3.20;;;;;;;16.75;80.32;99415.29;105864;1257;61140;-22
2023/09/03 00:41:19;;;;;;;3.70;3.30;;;;;;;16.47;81.18;99416.14;105677;1259;61160;-22
2023/09/03 00:43:46;;;;;;;4.70;3.70;;;;;;;16.23;82.37;99410.80;105624;1254;72983;-22
2023/09/03 00:46:13;;;;;;;6.70;2.50;;;;;;;16.04;83.85;99415.54;105926;1256;74375;-22
2023/09/03 00:48:42;;;;;;;3.90;2.70;;;;;;;16.36;83.98;99409.85;105626;1260;72632;-23
2023/09/03 00:51:09;;;;;;;5.90;3.10;;;;;;;16.78;82.36;99403.44;105552;1261;61474;-22
2023/09/03 00:53:37;;;;;;;5.60;2.90;;;;;;;16.76;81.56;99397.29;105849;1257;61058;-22
2023/09/03 00:56:05;;;;;;;4.60;3.30;;;;;;;16.51;81.98;99397.04;105596;1260;72864;-22
2023/09/03 00:58:33;;;;;;;6.50;3.60;;;;;;;16.22;83.19;99392.86;105589;1254;74452;-22
2023/09/03 01:01:00;;;;;;;6.30;4.20;;;;;;;15.94;84.18;99392.11;105626;1254;72685;-22
2023/09/03 01:03:27;;;;;;;2.70;2.30;;;;;;;15.75;84.95;99393.76;105832;1257;61891;-22
2023/09/03 01:05:54;;;;;;;3.50;2.60;;;;;;;16.14;85.25;99388.29;105845;1252;61185;-22
2023/09/03 01:08:21;;;;;;;4.30;3.30;;;;;;;16.65;83.32;99383.56;105637;1255;73058;-22
2023/09/03 01:11:02;;;;;;;4.20;3.50;;;;;;;16.71;81.94;99382.89;105679;1254;74310;-22
2023/09/03 01:13:35;;;;;;;4.50;3.60;;;;;;;16.53;81.84;99378.62;105662;1254;72656;-22
2023/09/03 01:16:07;;;;;;;5.10;4.10;;;;;;;16.32;81.64;99380.30;105670;1254;61167;-22
2023/09/03 01:18:36;;;;;;;3.30;2.50;;;;;;;16.02;82.41;99376.82;105713;1259;61109;-22
2023/09/03 01:21:40;;;;;;;5.10;2.70;;;;;;;16.29;82.14;99384.00;105671;1254;72977;-22
2023/09/03 01:24:19;;;;;;;3.90;2.70;;;;;;;16.65;81.01;99379.31;105731;1259;74212;-22
2023/09/03 01:27:24;;;;;;;7.10;3.30;;;;;;;16.50;80.70;99378.20;105657;1254;73144;-22
2023/09/03 01:29:52;;;;;;;5.00;3.90;;;;;;;16.19;81.77;99378.81;105861;1254;61183;-22
2023/09/03 01:32:19;;;;;;;4.80;3.40;;;;;;;15.96;82.68;99375.48;105301;1254;61166;-22
2023/09/03 01:34:46;;;;;;;2.30;2.00;;;;;;;15.73;82.04;99378.61;105659;1254;72917;-22
2023/09/03 01:37:13;;;;;;;2.90;2.70;;;;;;;16.01;82.24;99381.65;105246;1260;74333;-22
2023/09/03 01:39:40;;;;;;;3.80;2.90;;;;;;;16.42;81.30;99378.63;105776;1256;72698;-22
2023/09/03 01:42:07;;;;;;;4.70;3.20;;;;;;;16.40;79.60;99381.64;105490;1255;61159;-22
2023/09/03 01:44:34;;;;;;;4.20;3.00;;;;;;;16.17;79.95;99378.50;105616;1257;61102;-23
2023/09/03 01:47:23;;;;;;;6.10;3.90;;;;;;;15.88;80.77;99377.27;105510;1254;73832;-23
2023/09/03 01:49:56;;;;;;;7.80;4.00;;;;;;;15.56;81.27;99377.27;105546;1255;74697;-22
2023/09/03 01:52:35;;;;;;;;;;;;;;;15.34;82.17;99380.55;105592;1259;72658;-22
2023/09/03 01:55:03;;;;;;;2.20;1.80;;;;;;;15.79;82.65;99377.63;105694;1254;61214;-23
2023/09/03 01:57:42;;;;;;;3.90;2.00;;;;;;;16.23;80.80;99376.89;105483;1260;61170;-23
2023/09/03 02:00:12;;;;;;;3.30;2.90;;;;;;;16.20;79.69;99378.03;105294;1254;72752;-22
2023/09/03 02:02:43;;;;;;;3.50;3.20;;;;;;;15.94;80.33;99381.51;105619;1255;74213;-23
2023/09/03 02:05:13;;;;;;;5.30;3.50;;;;;;;15.57;81.31;99380.07;105252;1254;72348;-22
2023/09/03 02:07:41;;;;;;;7.10;3.10;;;;;;;15.30;82.64;99383.74;105267;1254;61113;-22
2023/09/03 02:10:09;;;;;;;2.40;1.80;;;;;;;15.12;83.31;99384.78;105508;1254;61162;-22
2023/09/03 02:12:36;;;;;;;4.50;2.20;;;;;;;15.53;83.51;99384.69;105602;1258;73831;-23
2023/09/03 02:15:04;;;;;;;3.50;2.70;;;;;;;15.98;81.85;99382.36;105821;1257;74274;-22
2023/09/03 02:17:31;;;;;;;3.00;2.70;;;;;;;15.98;81.16;99381.22;105602;1260;72650;-23
2023/09/03 02:19:58;;;;;;;4.90;3.10;;;;;;;15.78;81.56;99383.86;105721;1260;61119;-22
2023/09/03 02:22:25;;;;;;;6.10;3.60;;;;;;;15.52;81.93;99378.45;105621;1257;61180;-23
2023/09/03 02:24:52;;;;;;;11.40;4.00;;;;;;;15.29;82.59;99382.29;105885;1253;73655;-23
2023/09/03 02:27:19;;;;;;;2.20;1.80;;;;;;;15.08;83.69;99375.19;105869;1254;74200;-23
2023/09/03 02:29:46;;;;;;;2.40;1.80;;;;;;;15.47;83.89;99365.86;105857;1253;72536;-23
2023/09/03 02:32:13;;;;;;;4.50;3.30;;;;;;;15.94;82.87;99358.98;105869;1256;61096;-23
2023/09/03 02:34:40;;;;;;;5.70;3.70;;;;;;;16.00;82.00;99355.80;105718;1256;61239;-24
2023/09/03 02:37:08;;;;;;;5.00;3.80;;;;;;;15.83;82.37;99359.91;105674;1254;74048;-23
2023/09/03 02:39:35;;;;;;;4.90;4.10;;;;;;;15.60;82.07;99365.66;105808;1257;74385;-23
2023/09/03 02:42:02;;;;;;;9.30;5.90;;;;;;;15.34;82.19;99371.98;105673;1254;72488;-23
2023/09/03 02:44:29;;;;;;;2.50;1.90;;;;;;;15.08;82.96;99376.08;105516;1254;61923;-23
2023/09/03 02:46:56;;;;;;;3.30;2.90;;;;;;;15.45;83.30;99381.10;105621;1259;61186;-23
2023/09/03 02:49:23;;;;;;;8.00;3.60;;;;;;;15.87;81.13;99381.22;105885;1254;73855;-23
2023/09/03 02:51:50;;;;;;;4.60;3.00;;;;;;;15.81;80.06;99386.88;105953;1256;74328;-23
2023/09/03 02:54:18;;;;;;;2.90;2.70;;;;;;;15.48;80.69;99392.16;105603;1254;73323;-23
2023/09/03 02:56:46;;;;;;;4.40;3.40;;;;;;;15.05;82.89;99397.27;105659;1252;61042;-23
2023/09/03 02:59:13;;;;;;;4.30;3.40;;;;;;;14.84;83.35;99398.05;105530;1264;61136;-23
2023/09/03 03:01:42;;;;;;;3.30;2.50;;;;;;;14.65;84.65;99396.05;105709;1254;73681;-22
2023/09/03 03:04:09;;;;;;;1.90;1.70;;;;;;;15.04;84.09;99396.91;105931;1257;74293;-23
2023/09/03 03:06:36;;;;;;;2.10;1.90;;;;;;;15.43;82.10;99395.63;105844;1254;72710;-23
2023/09/03 03:09:04;;;;;;;3.00;2.40;;;;;;;15.42;81.42;99394.48;105910;1254;61151;-23
2023/09/03 03:11:31;;;;;;;2.60;2.40;;;;;;;15.19;81.41;99393.41;105585;1259;61263;-23
2023/09/03 03:14:00;;;;;;;3.60;2.80;;;;;;;14.90;81.50;99394.36;105678;1254;73548;-23
2023/09/03 03:16:32;;;;;;;4.00;2.80;;;;;;;14.62;82.02;99400.00;105695;1254;74295;-23
2023/09/03 03:19:02;;;;;;;2.70;1.90;;;;;;;14.42;83.07;99404.33;105841;1257;73252;-23
2023/09/03 03:21:30;;;;;;;3.40;3.00;;;;;;;14.74;84.07;99404.52;105478;1254;61056;-23
2023/09/03 03:24:04;;;;;;;4.30;3.90;;;;;;;15.11;83.96;99410.07;105637;1254;61096;-23
2023/09/03 03:26:34;;;;;;;5.10;4.50;;;;;;;15.06;84.73;99407.02;105647;1254;73834;-23
2023/09/03 03:29:01;;;;;;;6.60;5.90;;;;;;;14.83;86.35;99402.64;105802;1256;72990;-24
2023/09/03 03:31:30;;;;;;;9.20;6.50;;;;;;;14.57;87.74;99407.43;105545;1258;71440;-22
2023/09/03 03:33:58;;;;;;;5.20;4.60;;;;;;;14.38;88.67;99405.73;105791;1254;61971;-22
2023/09/03 03:36:27;;;;;;;6.30;4.70;;;;;;;14.74;88.65;99408.52;105922;1254;61116;-22
2023/09/03 03:38:54;;;;;;;7.40;6.40;;;;;;;15.09;86.71;99412.02;105679;1254;74480;-23
2023/09/03 03:41:21;;;;;;;7.90;5.60;;;;;;;15.06;86.28;99410.17;105898;1254;74671;-22
2023/09/03 03:43:51;;;;;;;7.90;6.70;;;;;;;14.88;86.45;99409.21;105733;1254;73175;-22
2023/09/03 03:46:19;;;;;;;9.40;6.80;;;;;;;14.63;87.62;99406.39;105914;1256;61173;-22
2023/09/03 03:48:48;;;;;;;5.50;3.90;;;;;;;14.49;88.07;99404.20;105573;1260;61518;-22
2023/09/03 03:51:18;;;;;;;7.30;4.80;;;;;;;14.94;88.14;99404.77;105500;1258;73783;-22
2023/09/03 03:53:45;;;;;;;8.30;5.60;;;;;;;15.40;86.01;99400.34;105563;1254;74306;-22
2023/09/03 03:56:12;;;;;;;9.00;5.60;;;;;;;15.41;85.18;99398.42;105621;1254;72633;-22
2023/09/03 03:58:41;;;;;;;7.70;5.90;;;;;;;15.23;85.07;99394.23;105669;1259;61044;-23
2023/09/03 04:01:15;;;;;;;8.30;5.80;;;;;;;15.01;85.78;99392.81;105648;1252;61201;-23
2023/09/03 04:03:43;;;;;;;5.40;3.60;;;;;;;14.84;86.82;99391.92;105678;1260;73675;-23
2023/09/03 04:06:10;;;;;;;6.90;4.00;;;;;;;15.31;86.69;99393.64;105601;1259;74453;-22
2023/09/03 04:08:38;;;;;;;6.30;4.90;;;;;;;15.81;84.54;99396.55;105633;1254;72648;-23
2023/09/03 04:11:07;;;;;;;7.70;5.00;;;;;;;15.87;83.95;99395.77;105545;1257;61115;-22
2023/09/03 04:13:34;;;;;;;8.20;5.30;;;;;;;15.71;83.71;99392.05;105666;1254;61129;-22
2023/09/03 04:16:16;;;;;;;6.60;5.80;;;;;;;15.48;84.30;99395.87;105706;1254;73546;-22
2023/09/03 04:18:46;;;;;;;;;;;;;;;15.28;85.38;99397.20;105582;1254;73219;-23
2023/09/03 04:21:13;;;;;;;6.70;4.30;;;;;;;15.73;85.49;99394.98;105495;1254;72452;-23
2023/09/03 04:23:40;;;;;;;7.60;5.00;;;;;;;16.20;83.65;99392.17;105537;1257;61092;-23
2023/09/03 04:26:09;;;;;;;7.70;5.20;;;;;;;16.28;82.60;99395.30;105569;1254;61125;-23
2023/09/03 04:28:41;;;;;;;8.10;5.90;;;;;;;16.18;82.69;99394.65;105491;1254;73825;-23
2023/09/03 04:31:08;;;;;;;8.40;5.90;;;;;;;16.01;83.40;99390.89;105568;1255;74231;-23
2023/09/03 04:33:37;;;;;;;7.20;4.60;;;;;;;15.61;85.51;99392.67;105518;1252;72704;-23
2023/09/03 04:36:06;;;;;;;8.30;5.40;;;;;;;15.72;86.19;99393.93;105533;1254;61145;-23
2023/09/03 04:38:35;;;;;;;8.30;5.70;;;;;;;15.92;85.17;99391.33;105679;1256;61157;-23
2023/09/03 04:41:04;;;;;;;8.00;5.50;;;;;;;15.92;85.18;99387.95;105723;1254;73611;-23
2023/09/03 04:43:36;;;;;;;7.10;5.70;;;;;;;15.65;86.59;99386.52;105275;1260;72354;-23
2023/09/03 04:46:04;;;;;;;7.20;5.20;;;;;;;15.56;87.24;99385.58;105382;1254;71080;-23
2023/09/03 04:48:31;;;;;;;5.70;4.30;;;;;;;15.79;88.31;99384.66;105521;1254;62117;-23
2023/09/03 04:51:05;;;;;;;6.70;5.10;;;;;;;16.47;84.73;99380.82;105557;1256;61140;-23
2023/09/03 04:53:33;;;;;;;9.00;5.60;;;;;;;16.83;82.69;99384.69;105272;1258;73685;-23
2023/09/03 04:56:01;;;;;;;9.30;5.50;;;;;;;17.01;81.60;99381.50;105549;1256;74891;-23
2023/09/03 04:58:30;;;;;;;7.70;5.90;;;;;;;17.12;81.44;99382.27;105289;1254;72624;-22
2023/09/03 05:00:57;;;;;;;8.80;4.30;;;;;;;17.07;81.69;99385.21;105492;1254;61803;-22
2023/09/03 05:03:25;;;;;;;8.00;4.60;;;;;;;17.61;80.60;99382.30;105548;1257;61199;-23
2023/09/03 05:05:52;;;;;;;7.00;5.20;;;;;;;17.59;79.48;99380.27;105557;1254;73892;-23
2023/09/03 05:08:19;;;;;;;6.80;4.60;;;;;;;18.04;78.74;99379.23;105481;1254;74297;-23
2023/09/03 05:10:47;;;;;;;7.70;5.10;;;;;;;18.06;77.93;99380.71;105539;1254;70476;-23
2023/09/03 05:13:15;;;;;;;7.60;5.30;;;;;;;17.87;78.14;99384.48;105438;1254;61186;-23
2023/09/03 05:15:42;;;;;;;7.70;5.60;;;;;;;17.36;79.78;99387.35;105505;1252;61045;-23
2023/09/03 05:18:09;;;;;;;12.40;5.50;;;;;;;16.88;82.47;99385.77;105667;1254;73880;-23
2023/09/03 05:20:38;;;;;;;7.20;5.10;;;;;;;17.36;81.51;99387.23;105661;1257;74071;-23
2023/09/03 05:23:06;;;;;;;7.20;5.20;;;;;;;17.70;79.04;99386.58;105589;1254;72609;-23
2023/09/03 05:25:33;;;;;;;8.30;6.00;;;;;;;17.45;79.54;99387.83;105555;1254;61062;-23
2023/09/03 05:28:01;;;;;;;9.30;6.60;;;;;;;17.28;80.05;99385.92;105511;1252;61160;-23
2023/09/03 05:30:30;;;;;;;12.80;7.20;;;;;;;16.83;82.42;99388.58;105665;1254;73699;-23
2023/09/03 05:32:57;;;;;;;8.60;5.60;;;;;;;16.83;83.27;99384.17;105736;1258;74329;-23
2023/09/03 05:35:26;;;;;;;11.50;6.70;;;;;;;17.25;81.55;99382.73;105710;1254;73564;-23
2023/09/03 05:37:53;;;;;;;12.30;6.80;;;;;;;17.17;81.15;99380.77;105901;1254;61052;-23
2023/09/03 05:40:20;;;;;;;10.30;5.90;;;;;;;17.50;80.03;99384.38;105856;1257;61052;-23
2023/09/03 05:42:48;;;;;;;7.00;5.50;;;;;;;17.82;79.65;99387.30;105596;1254;73896;-23
2023/09/03 05:45:15;;;;;;;10.80;7.10;;;;;;;17.88;78.77;99392.44;105435;1254;74311;-23
2023/09/03 05:47:43;;;;;;;11.80;6.90;;;;;;;17.88;78.66;99391.71;105551;1254;72651;-23
2023/09/03 05:50:11;;;;;;;8.40;4.80;;;;;;;17.87;78.68;99383.13;105490;1254;61756;-22
2023/09/03 05:52:38;;;;;;;8.00;5.00;;;;;;;18.33;77.40;99380.64;105614;1253;61179;-23
2023/09/03 05:55:06;;;;;;;10.90;5.50;;;;;;;18.86;75.52;99375.39;105637;1253;74107;-23
2023/09/03 05:57:33;;;;;;;9.70;5.80;;;;;;;18.96;74.63;99377.24;105498;1254;74155;-23
2023/09/03 06:00:01;;;;;;;11.40;7.30;;;;;;;18.22;75.78;99376.66;105773;1254;72344;-23
2023/09/03 06:02:29;;;;;;;9.70;7.00;;;;;;;17.60;78.56;99380.59;105739;1254;61185;-23
2023/09/03 06:04:56;;;;;;;10.20;7.40;;;;;;;17.66;78.78;99385.15;105453;1252;61188;-23
2023/09/03 06:07:23;;;;;;;9.60;6.80;;;;;;;17.49;79.41;99382.66;105585;1253;73849;-23
2023/09/03 06:09:50;;;;;;;7.40;5.20;;;;;;;17.62;79.70;99387.05;105547;1254;74185;-22
2023/09/03 06:12:17;;;;;;;11.70;5.40;;;;;;;18.01;78.49;99384.92;105573;1254;73237;-23
2023/09/03 06:14:44;;;;;;;7.30;5.40;;;;;;;18.63;75.63;99385.88;105510;1254;61147;-25
2023/09/03 06:17:11;;;;;;;11.40;6.00;;;;;;;19.04;75.01;99387.87;105567;1257;61102;-23
2023/09/03 06:19:38;;;;;;;11.10;6.00;;;;;;;18.85;72.86;99391.66;105581;1254;73782;-23
2023/09/03 06:22:05;;;;;;;8.70;5.50;;;;;;;18.70;72.56;99391.72;105838;1256;74386;-23
2023/09/03 06:24:32;;;;;;;9.40;6.10;;;;;;;18.64;73.05;99392.02;105555;1254;72633;-23
2023/09/03 06:26:59;;;;;;;12.80;5.80;;;;;;;18.52;73.09;99390.06;105563;1253;61075;-23
2023/09/03 06:29:26;;;;;;;11.40;6.60;;;;;;;18.41;73.13;99385.02;105591;1257;61183;-23
2023/09/03 06:31:53;;;;;;;9.10;6.00;;;;;;;18.62;73.63;99382.45;105767;1254;73526;-23
2023/09/03 06:34:21;;;;;;;7.00;4.90;;;;;;;18.68;73.39;99380.34;105606;1256;74315;-23
2023/09/03 06:36:48;;;;;;;9.10;4.60;;;;;;;19.45;71.78;99376.88;105509;1254;72640;-23
2023/09/03 06:39:15;;;;;;;8.40;4.70;;;;;;;19.51;68.75;99378.90;105240;1254;61192;-23
2023/09/03 06:41:42;;;;;;;7.90;5.40;;;;;;;19.74;67.89;99375.77;105562;1256;61169;-23
2023/09/03 06:44:15;;;;;;;10.00;5.40;;;;;;;19.75;68.98;99377.39;105463;1254;73513;-23
2023/09/03 06:46:41;;;;;;;10.20;5.70;;;;;;;19.70;68.77;99382.73;105703;1257;74244;-23
2023/09/03 06:49:09;;;;;;;10.70;6.30;;;;;;;19.59;68.64;99383.73;105258;1253;73155;-23
2023/09/03 06:51:35;;;;;;;7.20;5.10;;;;;;;19.59;68.40;99384.76;105657;1254;61144;-23
2023/09/03 06:54:03;;;;;;;10.30;5.80;;;;;;;19.69;68.17;99385.27;105564;1252;61217;-23
2023/09/03 06:56:32;;;;;;;9.30;5.30;;;;;;;19.57;69.45;99384.25;105579;1254;73705;-23
2023/09/03 06:58:59;;;;;;;12.30;6.00;;;;;;;19.49;69.13;99382.16;105691;1254;74496;-23
2023/09/03 07:01:26;;;;;;;8.70;5.90;;;;;;;19.39;69.06;99383.46;105805;1254;72152;-23
2023/09/03 07:03:54;;;;;;;9.10;5.70;;;;;;;19.59;68.52;99381.93;105595;1254;61100;-23
2023/09/03 07:06:21;;;;;;;7.40;5.60;;;;;;;19.73;68.71;99379.90;105760;1256;61497;-23
2023/09/03 07:08:50;;;;;;;10.10;5.30;;;;;;;19.90;68.50;99373.21;105709;1257;73904;-23
2023/09/03 07:11:17;;;;;;;10.20;5.60;;;;;;;20.17;67.50;99368.56;105630;1254;74339;-22
2023/09/03 07:13:44;;;;;;;12.00;6.00;;;;;;;19.98;65.64;99368.28;105566;1253;72670;-23
2023/09/03 07:16:11;;;;;;;9.50;5.30;;;;;;;19.88;65.40;99371.15;105555;1252;61143;-23
2023/09/03 07:18:38;;;;;;;7.50;5.20;;;;;;;19.60;67.18;99370.15;105550;1254;61147;-22
2023/09/03 07:21:06;;;;;;;7.00;5.20;;;;;;;20.04;67.03;99366.40;105840;1254;74984;-23
2023/09/03 07:23:34;;;;;;;6.80;4.70;;;;;;;20.14;66.62;99365.09;105649;1254;74797;-23
2023/09/03 07:26:05;;;;;;;5.90;4.60;;;;;;;20.14;66.52;99370.55;105661;1254;72637;-23
2023/09/03 07:28:32;;;;;;;6.80;4.70;;;;;;;20.16;66.94;99375.20;105371;1254;61055;-23
2023/09/03 07:31:01;;;;;;;6.90;4.80;;;;;;;20.32;66.52;99373.67;105604;1254;61045;-23
2023/09/03 07:33:28;;;;;;;8.20;4.80;;;;;;;20.37;66.80;99372.72;105665;1254;73815;-22
2023/09/03 07:35:58;;;;;;;6.90;4.60;;;;;;;20.03;66.29;99377.94;105541;1254;74305;-23
2023/09/03 07:38:27;;;;;;;6.10;3.90;;;;;;;20.27;67.00;99377.85;105619;1254;73028;-23
2023/09/03 07:40:54;;;;;;;7.60;4.40;;;;;;;20.49;66.26;99383.55;105575;1254;61143;-23
2023/09/03 07:43:21;;;;;;;6.30;4.30;;;;;;;20.65;65.63;99383.54;105540;1259;61195;-23
2023/09/03 07:45:49;;;;;;;6.70;4.10;;;;;;;20.75;65.24;99386.84;105647;1254;73825;-23
2023/09/03 07:48:17;;;;;;;6.70;3.80;;;;;;;20.83;64.05;99381.67;105851;1254;74187;-23
2023/09/03 07:50:44;;;;;;;5.60;3.40;;;;;;;20.78;64.70;99381.89;105535;1254;73122;-23
2023/09/03 07:53:11;;;;;;;5.00;3.60;;;;;;;20.88;64.26;99380.31;105491;1252;61158;-23
2023/09/03 07:55:38;;;;;;;4.80;3.50;;;;;;;21.06;63.55;99381.30;105792;1254;61180;-23
2023/09/03 07:58:05;;;;;;;7.70;3.50;;;;;;;21.20;63.55;99383.05;105600;1256;74218;-23
2023/09/03 08:00:32;;;;;;;4.60;3.20;;;;;;;21.45;62.79;99378.70;105611;1254;74380;-23
2023/09/03 08:02:59;;;;;;;4.50;3.30;;;;;;;21.45;60.90;99377.21;105570;1253;72476;-23
2023/09/03 08:05:26;;;;;;;5.10;3.50;;;;;;;21.26;62.13;99372.52;105554;1253;61049;-23
2023/09/03 08:07:53;;;;;;;4.60;3.40;;;;;;;21.01;62.37;99372.78;105620;1255;61096;-23
2023/09/03 08:10:22;;;;;;;4.00;2.70;;;;;;;20.84;63.70;99374.16;105566;1254;73800;-23
2023/09/03 08:12:52;;;;;;;5.50;3.30;;;;;;;20.84;63.43;99371.67;105564;1254;74666;-24
2023/09/03 08:15:19;;;;;;;7.20;3.00;;;;;;;21.12;62.93;99372.77;105519;1254;72611;-23
2023/09/03 08:18:04;;;;;;;3.80;2.40;;;;;;;21.56;62.28;99375.54;105520;1254;61173;-23
2023/09/03 08:20:32;;;;;;;3.20;2.50;;;;;;;21.62;60.11;99376.90;105451;1260;61183;-23
2023/09/03 08:22:59;;;;;;;5.90;2.60;;;;;;;21.50;59.58;99378.77;105548;1254;73820;-23
2023/09/03 08:25:27;;;;;;;4.40;2.30;;;;;;;21.45;58.47;99374.23;105514;1259;73330;-23
2023/09/03 08:27:54;;;;;;;4.70;2.40;;;;;;;21.35;59.62;99372.62;105435;1259;71095;-23
2023/09/03 08:30:22;;;;;;;4.70;2.20;;;;;;;21.26;60.55;99376.31;105578;1254;61051;-23
2023/09/03 08:32:49;;;;;;;5.20;2.40;;;;;;;21.44;60.74;99375.08;105587;1256;61103;-24
2023/09/03 08:35:15;;;;;;;2.40;2.10;;;;;;;21.55;58.97;99377.23;105257;1254;73704;-23
2023/09/03 08:37:42;;;;;;;2.10;1.70;;;;;;;21.68;56.20;99376.40;105898;1255;74330;-23
2023/09/03 08:40:11;;;;;;;3.50;1.90;;;;;;;21.90;55.92;99373.33;105669;1254;72740;-23
2023/09/03 08:42:40;;;;;;;2.40;1.90;;;;;;;22.19;55.76;99370.08;105618;1254;61055;-23
2023/09/03 08:45:12;;;;;;;2.70;2.10;;;;;;;22.47;55.80;99367.21;105702;1259;61162;-23
2023/09/03 08:47:41;;;;;;;3.70;1.60;;;;;;;22.60;55.15;99368.23;105718;1254;73818;-23
2023/09/03 08:50:09;;;;;;;2.20;1.70;;;;;;;22.62;53.69;99369.02;105654;1253;74012;-23
2023/09/03 08:52:37;;;;;;;3.90;1.40;;;;;;;22.54;54.40;99371.27;105632;1254;72716;-23
2023/09/03 08:55:04;;;;;;;1.90;1.40;;;;;;;22.62;52.97;99374.77;105765;1254;61159;-23
2023/09/03 08:57:34;;;;;;;1.60;1.10;;;;;;;22.67;53.02;99376.19;105694;1252;61099;-23
2023/09/03 09:00:05;;;;;;;1.70;1.30;;;;;;;22.72;51.65;99373.23;105664;1254;73781;-23
2023/09/03 09:02:36;;;;;;;2.40;1.60;;;;;;;22.87;51.95;99365.18;105698;1254;74400;-23
2023/09/03 09:05:07;;;;;;;2.70;1.60;;;;;;;22.99;51.19;99368.40;105588;1254;71776;-23
2023/09/03 09:07:34;;;;;;;1.80;1.50;;;;;;;22.95;50.07;99368.32;105505;1254;61020;-23
2023/09/03 09:10:10;;;;;;;2.30;1.40;;;;;;;22.90;51.23;99367.59;105586;1257;61159;-23
2023/09/03 09:12:53;;;;;;;2.10;1.90;;;;;;;22.79;51.90;99368.41;105371;1254;72861;-23
2023/09/03 09:15:19;;;;;;;2.20;1.50;;;;;;;22.81;51.95;99363.61;105507;1254;74232;-23
2023/09/03 09:17:48;;;;;;;3.70;1.80;;;;;;;22.78;52.38;99365.55;105769;1254;73192;-23
2023/09/03 09:20:16;;;;;;;3.80;2.20;;;;;;;22.57;52.47;99362.78;105560;1253;61142;-23
2023/09/03 09:22:45;;;;;;;2.80;2.10;;;;;;;22.40;53.52;99363.98;105376;1253;61250;-23
2023/09/03 09:25:22;;;;;;;3.50;2.30;;;;;;;22.55;53.36;99362.61;105413;1254;73289;-23
2023/09/03 09:27:51;;;;;;;4.10;2.20;;;;;;;22.64;53.70;99362.50;105258;1260;74414;-23
2023/09/03 09:30:19;;;;;;;5.90;2.00;;;;;;;22.71;52.78;99363.23;105557;1259;72749;-23
2023/09/03 09:32:47;;;;;;;4.70;2.30;;;;;;;22.76;52.42;99359.09;105596;1254;61059;-23
2023/09/03 09:35:24;;;;;;;5.30;2.20;;;;;;;22.81;52.38;99356.01;105397;1259;61182;-23
2023/09/03 09:37:51;;;;;;;4.90;2.50;;;;;;;22.61;52.34;99349.51;105273;1254;73844;-24
2023/09/03 09:40:26;;;;;;;4.80;2.20;;;;;;;22.33;51.68;99348.19;105649;1254;74149;-23
2023/09/03 09:42:55;;;;;;;3.60;2.70;;;;;;;21.83;53.10;99343.63;105358;1254;72596;-23
2023/09/03 09:45:23;;;;;;;3.30;2.40;;;;;;;22.26;53.41;99337.27;103313;1252;2868335;-23
2023/09/03 09:48:07;;;;;;;3.20;2.30;;;;;;;22.64;52.33;99339.52;105521;1256;61161;-23
2023/09/03 09:50:35;;;;;;;3.20;2.20;;;;;;;23.46;50.49;99339.13;105395;1259;73794;-23
2023/09/03 09:53:03;;;;;;;3.30;2.40;;;;;;;23.27;50.43;99330.61;105487;1259;74187;-23
2023/09/03 09:55:32;;;;;;;5.70;2.30;;;;;;;23.14;50.82;99326.29;105350;1253;72678;-23
2023/09/03 09:57:59;;;;;;;3.90;2.40;;;;;;;23.87;49.96;99321.39;105535;1254;61148;-23
2023/09/03 10:00:36;;;;;;;4.10;2.50;;;;;;;23.59;48.96;99321.30;105866;1253;61182;-23
2023/09/03 10:03:10;;;;;;;2.90;2.00;;;;;;;23.82;49.45;99317.80;105722;1254;73647;-23
2023/09/03 10:05:38;;;;;;;3.30;2.30;;;;;;;23.42;49.54;99315.14;105704;1254;74506;-23
2023/09/03 10:08:05;;;;;;;3.40;2.00;;;;;;;23.28;50.13;99312.23;105496;1254;72532;-23
2023/09/03 10:10:33;;;;;;;3.80;2.60;;;;;;;24.39;48.00;99305.35;105874;1252;61567;-23
2023/09/03 10:13:02;;;;;;;5.00;2.50;;;;;;;24.70;46.46;99299.73;105656;1252;61132;-23
2023/09/03 10:15:29;;;;;;;4.30;2.60;;;;;;;23.44;47.87;99298.64;105738;1254;73715;-23
2023/09/03 10:17:56;;;;;;;2.80;2.20;;;;;;;23.68;48.99;99298.20;105557;1259;74330;-23
2023/09/03 10:20:23;;;;;;;5.20;2.30;;;;;;;24.53;46.39;99295.86;105561;1253;72485;-23
2023/09/03 10:22:53;;;;;;;9.90;2.90;;;;;;;25.04;45.42;99293.92;105479;1252;61080;-25
2023/09/03 10:25:22;;;;;;;2.40;2.20;;;;;;;24.96;46.02;99290.63;105498;1259;61202;-22
2023/09/03 10:27:52;;;;;;;6.20;2.70;;;;;;;24.15;47.30;99288.94;105477;1254;73539;-23
2023/09/03 10:30:23;;;;;;;3.00;2.10;;;;;;;24.45;46.82;99291.80;105729;1254;74301;-23
2023/09/03 10:32:51;;;;;;;2.50;1.90;;;;;;;24.61;44.95;99290.55;105446;1254;71465;-24
2023/09/03 10:35:18;;;;;;;4.70;2.70;;;;;;;24.59;45.19;99290.69;105607;1253;61080;-21
2023/09/03 10:37:45;;;;;;;4.10;2.60;;;;;;;24.23;44.21;99292.97;105568;1256;61224;-21
2023/09/03 10:40:25;;;;;;;5.60;2.00;;;;;;;24.40;44.37;99286.41;105601;1254;73875;-21
2023/09/03 10:42:53;;;;;;;3.90;2.60;;;;;;;24.71;44.69;99281.18;105561;1259;74161;-22
2023/09/03 10:45:20;;;;;;;4.50;2.60;;;;;;;24.77;44.93;99277.34;105230;1254;72453;-21
2023/09/03 10:48:04;;;;;;;5.30;2.40;;;;;;;24.44;44.98;99268.88;105447;1254;61157;-21
2023/09/03 10:50:44;;;;;;;3.30;2.30;;;;;;;23.89;46.26;99263.64;105497;1259;61280;-23
2023/09/03 10:53:37;;;;;;;4.20;2.20;;;;;;;23.64;47.50;99268.98;105507;1254;73862;-23
2023/09/03 10:56:14;;;;;;;16.00;3.10;;;;;;;23.42;47.27;99269.64;105505;1254;74054;-23
2023/09/03 10:59:00;;;;;;;4.90;2.60;;;;;;;24.07;46.58;99271.19;105405;1254;71862;-23
2023/09/03 11:01:33;;;;;;;6.60;2.50;;;;;;;24.23;45.67;99272.27;105327;1261;61202;-23
2023/09/03 11:04:02;;;;;;;4.20;2.30;;;;;;;24.08;45.77;99269.52;105481;1258;61256;-24
2023/09/03 11:06:31;;;;;;;5.20;2.30;;;;;;;23.99;46.16;99267.89;105404;1254;73944;-21
2023/09/03 11:09:01;;;;;;;3.40;2.10;;;;;;;23.92;45.95;99270.02;105526;1254;74298;-24
2023/09/03 11:11:35;;;;;;;4.00;2.30;;;;;;;23.81;44.81;99266.09;105474;1254;72667;-21
2023/09/03 11:14:02;;;;;;;2.60;2.00;;;;;;;23.80;44.91;99264.98;105512;1254;61195;-21
2023/09/03 11:16:31;;;;;;;2.90;2.10;;;;;;;24.25;45.72;99260.80;105493;1259;61185;-21
2023/09/03 11:18:58;;;;;;;4.30;2.20;;;;;;;24.49;44.76;99259.11;105385;1254;73965;-21
2023/09/03 11:21:25;;;;;;;6.20;3.40;;;;;;;24.63;43.25;99257.56;105544;1254;74332;-21
2023/09/03 11:24:05;;;;;;;15.10;6.50;;;;;;;24.74;44.02;99259.52;105340;1254;71194;-21
2023/09/03 11:26:33;;;;;;;38.10;15.20;;;;;;;24.86;43.64;99257.35;105544;1254;61180;-21
2023/09/03 11:29:01;;;;;;;34.50;14.60;;;;;;;24.73;44.19;99255.58;105504;1255;61110;-24
2023/09/03 11:31:30;;;;;;;12.20;6.00;;;;;;;24.35;44.52;99252.40;105239;1254;72813;-21
2023/09/03 11:33:57;;;;;;;12.30;5.40;;;;;;;24.22;45.18;99254.83;105487;1254;74440;-23